sensor_id;sensor_type;location;lat;lon;timestamp;P1;durP1;ratioP1;P2;durP2;ratioP2
57023;SDS011;42916;54.346;18.562;2023-12-04T00:01:19;11.20;;;4.30;;
57023;SDS011;42916;54.346;18.562;2023-12-04T00:03:46;10.20;;;5.40;;
57023;SDS011;42916;54.346;18.562;2023-12-04T00:06:13;8.60;;;5.10;;
57023;SDS011;42916;54.346;18.562;2023-12-04T00:08:40;10.70;;;5.30;;
57023;SDS011;42916;54.346;18.562;2023-12-04T00:11:07;8.30;;;3.80;;
57023;SDS011;42916;54.346;18.562;2023-12-04T00:13:34;9.20;;;4.70;;
57023;SDS011;42916;54.346;18.562;2023-12-04T00:16:01;9.20;;;4.60;;
57023;SDS011;42916;54.346;18.562;2023-12-04T00:18:28;8.20;;;4.60;;
57023;SDS011;42916;54.346;18.562;2023-12-04T00:20:54;9.70;;;4.40;;
57023;SDS011;42916;54.346;18.562;2023-12-04T00:23:21;8.90;;;4.90;;
57023;SDS011;42916;54.346;18.562;2023-12-04T00:25:48;8.80;;;4.20;;
57023;SDS011;42916;54.346;18.562;2023-12-04T00:28:14;8.80;;;3.80;;
57023;SDS011;42916;54.346;18.562;2023-12-04T00:30:41;7.60;;;3.90;;
57023;SDS011;42916;54.346;18.562;2023-12-04T00:33:08;7.50;;;4.10;;
57023;SDS011;42916;54.346;18.562;2023-12-04T00:35:34;7.60;;;3.50;;
57023;SDS011;42916;54.346;18.562;2023-12-04T00:38:01;6.70;;;3.90;;
57023;SDS011;42916;54.346;18.562;2023-12-04T00:40:28;8.90;;;4.40;;
57023;SDS011;42916;54.346;18.562;2023-12-04T00:42:54;10.00;;;4.10;;
57023;SDS011;42916;54.346;18.562;2023-12-04T00:45:21;6.90;;;3.70;;
57023;SDS011;42916;54.346;18.562;2023-12-04T00:47:48;7.00;;;3.60;;
57023;SDS011;42916;54.346;18.562;2023-12-04T00:50:15;8.10;;;3.50;;
57023;SDS011;42916;54.346;18.562;2023-12-04T00:52:41;6.50;;;3.50;;
57023;SDS011;42916;54.346;18.562;2023-12-04T00:55:08;8.00;;;4.10;;
57023;SDS011;42916;54.346;18.562;2023-12-04T00:57:35;6.80;;;3.90;;
57023;SDS011;42916;54.346;18.562;2023-12-04T01:00:02;7.20;;;4.10;;
57023;SDS011;42916;54.346;18.562;2023-12-04T01:02:29;9.10;;;4.40;;
57023;SDS011;42916;54.346;18.562;2023-12-04T01:04:56;8.40;;;4.40;;
57023;SDS011;42916;54.346;18.562;2023-12-04T01:07:23;6.80;;;3.50;;
57023;SDS011;42916;54.346;18.562;2023-12-04T01:09:50;6.50;;;3.70;;
57023;SDS011;42916;54.346;18.562;2023-12-04T01:12:16;7.20;;;4.00;;
57023;SDS011;42916;54.346;18.562;2023-12-04T01:14:43;8.40;;;4.20;;
57023;SDS011;42916;54.346;18.562;2023-12-04T01:17:10;7.40;;;4.10;;
57023;SDS011;42916;54.346;18.562;2023-12-04T01:19:36;7.20;;;3.60;;
57023;SDS011;42916;54.346;18.562;2023-12-04T01:22:03;8.40;;;3.70;;
57023;SDS011;42916;54.346;18.562;2023-12-04T01:24:30;10.10;;;4.10;;
57023;SDS011;42916;54.346;18.562;2023-12-04T01:26:56;8.10;;;3.50;;
57023;SDS011;42916;54.346;18.562;2023-12-04T01:29:23;7.20;;;4.20;;
57023;SDS011;42916;54.346;18.562;2023-12-04T01:31:50;4.90;;;3.20;;
57023;SDS011;42916;54.346;18.562;2023-12-04T01:34:16;7.90;;;3.40;;
57023;SDS011;42916;54.346;18.562;2023-12-04T01:36:43;5.80;;;3.80;;
57023;SDS011;42916;54.346;18.562;2023-12-04T01:39:10;7.20;;;4.10;;
57023;SDS011;42916;54.346;18.562;2023-12-04T01:41:37;7.10;;;4.00;;
57023;SDS011;42916;54.346;18.562;2023-12-04T01:44:03;6.60;;;3.80;;
57023;SDS011;42916;54.346;18.562;2023-12-04T01:46:30;6.30;;;3.70;;
57023;SDS011;42916;54.346;18.562;2023-12-04T01:48:57;6.10;;;3.30;;
57023;SDS011;42916;54.346;18.562;2023-12-04T01:51:25;7.70;;;3.70;;
57023;SDS011;42916;54.346;18.562;2023-12-04T01:53:53;7.50;;;3.90;;
57023;SDS011;42916;54.346;18.562;2023-12-04T01:56:25;7.90;;;3.90;;
57023;SDS011;42916;54.346;18.562;2023-12-04T01:58:51;6.60;;;3.40;;
57023;SDS011;42916;54.346;18.562;2023-12-04T02:01:19;7.40;;;4.00;;
57023;SDS011;42916;54.346;18.562;2023-12-04T02:03:47;6.00;;;3.20;;
57023;SDS011;42916;54.346;18.562;2023-12-04T02:06:14;6.70;;;3.80;;
57023;SDS011;42916;54.346;18.562;2023-12-04T02:08:42;5.50;;;3.60;;
57023;SDS011;42916;54.346;18.562;2023-12-04T02:11:10;5.30;;;3.30;;
57023;SDS011;42916;54.346;18.562;2023-12-04T02:13:37;7.90;;;3.80;;
57023;SDS011;42916;54.346;18.562;2023-12-04T02:16:04;5.40;;;3.40;;
57023;SDS011;42916;54.346;18.562;2023-12-04T02:18:35;6.60;;;3.80;;
57023;SDS011;42916;54.346;18.562;2023-12-04T02:21:03;6.70;;;3.80;;
57023;SDS011;42916;54.346;18.562;2023-12-04T02:23:30;6.30;;;3.60;;
57023;SDS011;42916;54.346;18.562;2023-12-04T02:25:58;7.50;;;3.90;;
57023;SDS011;42916;54.346;18.562;2023-12-04T02:28:30;6.50;;;3.40;;
57023;SDS011;42916;54.346;18.562;2023-12-04T02:31:00;6.60;;;3.10;;
57023;SDS011;42916;54.346;18.562;2023-12-04T02:33:29;5.80;;;3.70;;
57023;SDS011;42916;54.346;18.562;2023-12-04T02:35:58;5.80;;;3.90;;
57023;SDS011;42916;54.346;18.562;2023-12-04T02:38:27;6.60;;;4.00;;
57023;SDS011;42916;54.346;18.562;2023-12-04T02:40:55;7.30;;;4.00;;
57023;SDS011;42916;54.346;18.562;2023-12-04T02:43:22;9.90;;;4.40;;
57023;SDS011;42916;54.346;18.562;2023-12-04T02:45:48;8.70;;;3.90;;
57023;SDS011;42916;54.346;18.562;2023-12-04T02:48:15;5.90;;;3.70;;
57023;SDS011;42916;54.346;18.562;2023-12-04T02:50:42;7.90;;;3.50;;
57023;SDS011;42916;54.346;18.562;2023-12-04T02:53:08;5.90;;;3.60;;
57023;SDS011;42916;54.346;18.562;2023-12-04T02:55:35;7.40;;;4.00;;
57023;SDS011;42916;54.346;18.562;2023-12-04T02:58:02;9.30;;;4.60;;
57023;SDS011;42916;54.346;18.562;2023-12-04T03:00:29;8.60;;;4.80;;
57023;SDS011;42916;54.346;18.562;2023-12-04T03:02:55;8.80;;;4.50;;
57023;SDS011;42916;54.346;18.562;2023-12-04T03:05:22;7.40;;;4.10;;
57023;SDS011;42916;54.346;18.562;2023-12-04T03:07:49;7.50;;;3.70;;
57023;SDS011;42916;54.346;18.562;2023-12-04T03:10:15;8.40;;;4.20;;
57023;SDS011;42916;54.346;18.562;2023-12-04T03:12:42;8.40;;;3.90;;
57023;SDS011;42916;54.346;18.562;2023-12-04T03:15:09;7.80;;;3.90;;
57023;SDS011;42916;54.346;18.562;2023-12-04T03:17:38;6.90;;;4.40;;
57023;SDS011;42916;54.346;18.562;2023-12-04T03:20:05;7.30;;;4.20;;
57023;SDS011;42916;54.346;18.562;2023-12-04T03:22:36;9.60;;;4.30;;
57023;SDS011;42916;54.346;18.562;2023-12-04T03:25:03;9.90;;;4.00;;
57023;SDS011;42916;54.346;18.562;2023-12-04T03:27:30;7.90;;;3.50;;
57023;SDS011;42916;54.346;18.562;2023-12-04T03:29:56;6.40;;;3.60;;
57023;SDS011;42916;54.346;18.562;2023-12-04T03:32:23;6.60;;;3.90;;
57023;SDS011;42916;54.346;18.562;2023-12-04T03:34:50;7.00;;;3.50;;
57023;SDS011;42916;54.346;18.562;2023-12-04T03:37:17;7.80;;;4.30;;
57023;SDS011;42916;54.346;18.562;2023-12-04T03:39:43;7.90;;;3.80;;
57023;SDS011;42916;54.346;18.562;2023-12-04T03:42:10;6.50;;;3.50;;
57023;SDS011;42916;54.346;18.562;2023-12-04T03:44:37;7.30;;;3.40;;
57023;SDS011;42916;54.346;18.562;2023-12-04T03:47:03;6.90;;;3.70;;
57023;SDS011;42916;54.346;18.562;2023-12-04T03:49:30;6.10;;;3.30;;
57023;SDS011;42916;54.346;18.562;2023-12-04T03:51:57;5.70;;;3.30;;
57023;SDS011;42916;54.346;18.562;2023-12-04T03:54:23;6.20;;;3.00;;
57023;SDS011;42916;54.346;18.562;2023-12-04T03:56:50;7.90;;;3.40;;
57023;SDS011;42916;54.346;18.562;2023-12-04T03:59:17;6.50;;;2.90;;
57023;SDS011;42916;54.346;18.562;2023-12-04T04:01:43;6.00;;;3.40;;
57023;SDS011;42916;54.346;18.562;2023-12-04T04:04:10;8.30;;;3.50;;
57023;SDS011;42916;54.346;18.562;2023-12-04T04:06:37;8.90;;;3.80;;
57023;SDS011;42916;54.346;18.562;2023-12-04T04:09:05;9.30;;;4.10;;
57023;SDS011;42916;54.346;18.562;2023-12-04T04:11:32;6.20;;;3.20;;
57023;SDS011;42916;54.346;18.562;2023-12-04T04:13:58;7.80;;;3.20;;
57023;SDS011;42916;54.346;18.562;2023-12-04T04:16:25;7.00;;;3.30;;
57023;SDS011;42916;54.346;18.562;2023-12-04T04:18:52;6.30;;;3.50;;
57023;SDS011;42916;54.346;18.562;2023-12-04T04:21:18;5.90;;;3.10;;
57023;SDS011;42916;54.346;18.562;2023-12-04T04:23:45;6.00;;;3.00;;
57023;SDS011;42916;54.346;18.562;2023-12-04T04:26:12;6.80;;;3.40;;
57023;SDS011;42916;54.346;18.562;2023-12-04T04:28:39;9.40;;;3.80;;
57023;SDS011;42916;54.346;18.562;2023-12-04T04:31:05;9.80;;;4.40;;
57023;SDS011;42916;54.346;18.562;2023-12-04T04:33:32;6.00;;;3.60;;
57023;SDS011;42916;54.346;18.562;2023-12-04T04:35:59;7.10;;;3.50;;
57023;SDS011;42916;54.346;18.562;2023-12-04T04:38:26;6.10;;;3.40;;
57023;SDS011;42916;54.346;18.562;2023-12-04T04:40:52;6.20;;;3.60;;
57023;SDS011;42916;54.346;18.562;2023-12-04T04:43:19;9.50;;;4.70;;
57023;SDS011;42916;54.346;18.562;2023-12-04T04:45:46;7.20;;;4.00;;
57023;SDS011;42916;54.346;18.562;2023-12-04T04:48:13;11.70;;;5.40;;
57023;SDS011;42916;54.346;18.562;2023-12-04T04:50:39;11.20;;;5.00;;
57023;SDS011;42916;54.346;18.562;2023-12-04T04:53:06;10.90;;;5.60;;
57023;SDS011;42916;54.346;18.562;2023-12-04T04:55:33;6.90;;;4.00;;
57023;SDS011;42916;54.346;18.562;2023-12-04T04:58:00;7.10;;;4.40;;
57023;SDS011;42916;54.346;18.562;2023-12-04T05:00:27;7.50;;;4.50;;
57023;SDS011;42916;54.346;18.562;2023-12-04T05:02:54;7.90;;;4.30;;
57023;SDS011;42916;54.346;18.562;2023-12-04T05:05:20;8.00;;;3.90;;
57023;SDS011;42916;54.346;18.562;2023-12-04T05:07:47;13.90;;;5.20;;
57023;SDS011;42916;54.346;18.562;2023-12-04T05:10:14;12.60;;;5.70;;
57023;SDS011;42916;54.346;18.562;2023-12-04T05:12:40;10.40;;;5.10;;
57023;SDS011;42916;54.346;18.562;2023-12-04T05:15:07;10.30;;;6.00;;
57023;SDS011;42916;54.346;18.562;2023-12-04T05:17:34;15.40;;;5.30;;
57023;SDS011;42916;54.346;18.562;2023-12-04T05:20:01;9.70;;;4.60;;
57023;SDS011;42916;54.346;18.562;2023-12-04T05:22:27;7.70;;;4.20;;
57023;SDS011;42916;54.346;18.562;2023-12-04T05:24:54;8.90;;;4.70;;
57023;SDS011;42916;54.346;18.562;2023-12-04T05:27:21;9.60;;;4.40;;
57023;SDS011;42916;54.346;18.562;2023-12-04T05:29:47;13.30;;;5.70;;
57023;SDS011;42916;54.346;18.562;2023-12-04T05:32:14;11.80;;;5.10;;
57023;SDS011;42916;54.346;18.562;2023-12-04T05:34:41;11.20;;;5.50;;
57023;SDS011;42916;54.346;18.562;2023-12-04T05:37:07;9.30;;;4.60;;
57023;SDS011;42916;54.346;18.562;2023-12-04T05:39:34;7.90;;;4.40;;
57023;SDS011;42916;54.346;18.562;2023-12-04T05:42:01;9.30;;;4.90;;
57023;SDS011;42916;54.346;18.562;2023-12-04T05:44:27;8.90;;;4.80;;
57023;SDS011;42916;54.346;18.562;2023-12-04T05:46:54;13.50;;;6.40;;
57023;SDS011;42916;54.346;18.562;2023-12-04T05:49:21;12.80;;;6.70;;
57023;SDS011;42916;54.346;18.562;2023-12-04T05:51:47;15.60;;;7.00;;
57023;SDS011;42916;54.346;18.562;2023-12-04T05:54:14;16.00;;;6.90;;
57023;SDS011;42916;54.346;18.562;2023-12-04T05:56:41;10.70;;;5.10;;
57023;SDS011;42916;54.346;18.562;2023-12-04T05:59:07;13.80;;;6.30;;
57023;SDS011;42916;54.346;18.562;2023-12-04T06:01:34;13.40;;;6.30;;
57023;SDS011;42916;54.346;18.562;2023-12-04T06:04:01;14.50;;;7.00;;
57023;SDS011;42916;54.346;18.562;2023-12-04T06:06:27;14.50;;;6.80;;
57023;SDS011;42916;54.346;18.562;2023-12-04T06:08:54;18.90;;;8.50;;
57023;SDS011;42916;54.346;18.562;2023-12-04T06:11:21;19.50;;;8.80;;
57023;SDS011;42916;54.346;18.562;2023-12-04T06:13:47;18.70;;;7.60;;
57023;SDS011;42916;54.346;18.562;2023-12-04T06:16:14;14.40;;;7.60;;
57023;SDS011;42916;54.346;18.562;2023-12-04T06:18:41;13.30;;;6.60;;
57023;SDS011;42916;54.346;18.562;2023-12-04T06:21:08;8.80;;;4.40;;
57023;SDS011;42916;54.346;18.562;2023-12-04T06:23:34;10.40;;;5.00;;
57023;SDS011;42916;54.346;18.562;2023-12-04T06:26:01;14.60;;;6.40;;
57023;SDS011;42916;54.346;18.562;2023-12-04T06:28:28;14.00;;;6.60;;
57023;SDS011;42916;54.346;18.562;2023-12-04T06:30:55;17.70;;;6.50;;
57023;SDS011;42916;54.346;18.562;2023-12-04T06:33:22;20.40;;;8.40;;
57023;SDS011;42916;54.346;18.562;2023-12-04T06:35:50;13.90;;;7.10;;
57023;SDS011;42916;54.346;18.562;2023-12-04T06:38:16;10.30;;;4.90;;
57023;SDS011;42916;54.346;18.562;2023-12-04T06:40:45;12.90;;;6.50;;
57023;SDS011;42916;54.346;18.562;2023-12-04T06:43:12;16.90;;;6.90;;
57023;SDS011;42916;54.346;18.562;2023-12-04T06:45:40;21.00;;;8.40;;
57023;SDS011;42916;54.346;18.562;2023-12-04T06:48:07;19.50;;;7.90;;
57023;SDS011;42916;54.346;18.562;2023-12-04T06:50:35;18.70;;;7.80;;
57023;SDS011;42916;54.346;18.562;2023-12-04T06:53:02;21.40;;;7.20;;
57023;SDS011;42916;54.346;18.562;2023-12-04T06:55:28;21.20;;;8.90;;
57023;SDS011;42916;54.346;18.562;2023-12-04T06:57:55;17.40;;;8.20;;
57023;SDS011;42916;54.346;18.562;2023-12-04T07:00:22;19.20;;;7.40;;
57023;SDS011;42916;54.346;18.562;2023-12-04T07:02:49;16.60;;;8.70;;
57023;SDS011;42916;54.346;18.562;2023-12-04T07:05:17;15.90;;;7.40;;
57023;SDS011;42916;54.346;18.562;2023-12-04T07:07:45;18.80;;;7.40;;
57023;SDS011;42916;54.346;18.562;2023-12-04T07:10:12;18.10;;;8.10;;
57023;SDS011;42916;54.346;18.562;2023-12-04T07:12:41;19.30;;;8.70;;
57023;SDS011;42916;54.346;18.562;2023-12-04T07:15:09;19.00;;;8.70;;
57023;SDS011;42916;54.346;18.562;2023-12-04T07:17:37;14.90;;;6.60;;
57023;SDS011;42916;54.346;18.562;2023-12-04T07:20:06;12.70;;;5.80;;
57023;SDS011;42916;54.346;18.562;2023-12-04T07:22:33;14.90;;;7.20;;
57023;SDS011;42916;54.346;18.562;2023-12-04T07:25:00;14.70;;;6.40;;
57023;SDS011;42916;54.346;18.562;2023-12-04T07:27:26;16.90;;;6.50;;
57023;SDS011;42916;54.346;18.562;2023-12-04T07:29:54;17.40;;;7.40;;
57023;SDS011;42916;54.346;18.562;2023-12-04T07:32:20;17.70;;;8.00;;
57023;SDS011;42916;54.346;18.562;2023-12-04T07:34:47;16.00;;;7.30;;
57023;SDS011;42916;54.346;18.562;2023-12-04T07:37:14;13.90;;;6.40;;
57023;SDS011;42916;54.346;18.562;2023-12-04T07:39:40;16.90;;;7.70;;
57023;SDS011;42916;54.346;18.562;2023-12-04T07:42:09;15.10;;;8.00;;
57023;SDS011;42916;54.346;18.562;2023-12-04T07:44:36;15.70;;;7.90;;
57023;SDS011;42916;54.346;18.562;2023-12-04T07:47:03;20.20;;;8.50;;
57023;SDS011;42916;54.346;18.562;2023-12-04T07:49:30;19.00;;;8.50;;
57023;SDS011;42916;54.346;18.562;2023-12-04T07:51:56;16.80;;;8.70;;
57023;SDS011;42916;54.346;18.562;2023-12-04T07:54:24;21.90;;;9.20;;
57023;SDS011;42916;54.346;18.562;2023-12-04T07:56:52;23.00;;;10.00;;
57023;SDS011;42916;54.346;18.562;2023-12-04T07:59:19;22.30;;;9.80;;
57023;SDS011;42916;54.346;18.562;2023-12-04T08:01:46;18.40;;;8.90;;
57023;SDS011;42916;54.346;18.562;2023-12-04T08:04:13;19.20;;;9.20;;
57023;SDS011;42916;54.346;18.562;2023-12-04T08:06:39;15.90;;;7.70;;
57023;SDS011;42916;54.346;18.562;2023-12-04T08:09:07;18.10;;;9.20;;
57023;SDS011;42916;54.346;18.562;2023-12-04T08:11:36;18.00;;;7.80;;
57023;SDS011;42916;54.346;18.562;2023-12-04T08:14:03;19.50;;;7.70;;
57023;SDS011;42916;54.346;18.562;2023-12-04T08:16:30;21.50;;;9.10;;
57023;SDS011;42916;54.346;18.562;2023-12-04T08:18:57;17.10;;;8.20;;
57023;SDS011;42916;54.346;18.562;2023-12-04T08:21:24;13.30;;;7.40;;
57023;SDS011;42916;54.346;18.562;2023-12-04T08:23:50;17.70;;;8.20;;
57023;SDS011;42916;54.346;18.562;2023-12-04T08:26:21;16.40;;;8.80;;
57023;SDS011;42916;54.346;18.562;2023-12-04T08:28:49;17.40;;;8.30;;
57023;SDS011;42916;54.346;18.562;2023-12-04T08:31:16;15.40;;;8.00;;
57023;SDS011;42916;54.346;18.562;2023-12-04T08:33:43;21.00;;;9.20;;
57023;SDS011;42916;54.346;18.562;2023-12-04T08:36:11;20.10;;;9.20;;
57023;SDS011;42916;54.346;18.562;2023-12-04T08:38:38;19.20;;;8.70;;
57023;SDS011;42916;54.346;18.562;2023-12-04T08:41:05;25.00;;;10.40;;
57023;SDS011;42916;54.346;18.562;2023-12-04T08:43:32;22.30;;;10.00;;
57023;SDS011;42916;54.346;18.562;2023-12-04T08:45:58;23.10;;;10.40;;
57023;SDS011;42916;54.346;18.562;2023-12-04T08:48:26;23.70;;;11.20;;
57023;SDS011;42916;54.346;18.562;2023-12-04T08:50:53;19.00;;;9.60;;
57023;SDS011;42916;54.346;18.562;2023-12-04T08:53:20;22.10;;;10.30;;
57023;SDS011;42916;54.346;18.562;2023-12-04T08:55:47;18.50;;;9.50;;
57023;SDS011;42916;54.346;18.562;2023-12-04T08:58:14;20.00;;;9.70;;
57023;SDS011;42916;54.346;18.562;2023-12-04T09:00:40;21.70;;;9.90;;
57023;SDS011;42916;54.346;18.562;2023-12-04T09:03:09;25.60;;;10.90;;
57023;SDS011;42916;54.346;18.562;2023-12-04T09:05:39;22.00;;;10.20;;
57023;SDS011;42916;54.346;18.562;2023-12-04T09:08:06;19.20;;;9.70;;
57023;SDS011;42916;54.346;18.562;2023-12-04T09:10:33;19.70;;;10.60;;
57023;SDS011;42916;54.346;18.562;2023-12-04T09:13:00;21.20;;;9.90;;
57023;SDS011;42916;54.346;18.562;2023-12-04T09:15:27;18.30;;;8.70;;
57023;SDS011;42916;54.346;18.562;2023-12-04T09:17:54;20.30;;;10.20;;
57023;SDS011;42916;54.346;18.562;2023-12-04T09:20:20;23.20;;;10.60;;
57023;SDS011;42916;54.346;18.562;2023-12-04T09:22:47;20.30;;;9.40;;
57023;SDS011;42916;54.346;18.562;2023-12-04T09:25:14;19.00;;;9.60;;
57023;SDS011;42916;54.346;18.562;2023-12-04T09:27:41;21.10;;;10.50;;
57023;SDS011;42916;54.346;18.562;2023-12-04T09:30:08;23.50;;;9.70;;
57023;SDS011;42916;54.346;18.562;2023-12-04T09:32:35;19.60;;;10.40;;
57023;SDS011;42916;54.346;18.562;2023-12-04T09:35:01;21.10;;;11.00;;
57023;SDS011;42916;54.346;18.562;2023-12-04T09:37:28;20.70;;;8.90;;
57023;SDS011;42916;54.346;18.562;2023-12-04T09:39:55;20.90;;;9.80;;
57023;SDS011;42916;54.346;18.562;2023-12-04T09:42:22;21.00;;;9.20;;
57023;SDS011;42916;54.346;18.562;2023-12-04T09:44:49;18.20;;;8.70;;
57023;SDS011;42916;54.346;18.562;2023-12-04T09:47:18;19.30;;;10.30;;
57023;SDS011;42916;54.346;18.562;2023-12-04T09:49:46;20.20;;;8.60;;
57023;SDS011;42916;54.346;18.562;2023-12-04T09:52:14;18.40;;;10.00;;
57023;SDS011;42916;54.346;18.562;2023-12-04T09:54:41;17.50;;;8.80;;
57023;SDS011;42916;54.346;18.562;2023-12-04T09:57:09;21.30;;;10.10;;
57023;SDS011;42916;54.346;18.562;2023-12-04T09:59:37;19.00;;;9.50;;
57023;SDS011;42916;54.346;18.562;2023-12-04T10:02:04;21.10;;;9.90;;
57023;SDS011;42916;54.346;18.562;2023-12-04T10:04:32;20.10;;;9.60;;
57023;SDS011;42916;54.346;18.562;2023-12-04T10:07:02;17.10;;;8.40;;
57023;SDS011;42916;54.346;18.562;2023-12-04T10:09:30;19.60;;;9.80;;
57023;SDS011;42916;54.346;18.562;2023-12-04T10:11:57;17.40;;;8.30;;
57023;SDS011;42916;54.346;18.562;2023-12-04T10:14:24;18.70;;;9.40;;
57023;SDS011;42916;54.346;18.562;2023-12-04T10:16:52;19.00;;;9.50;;
57023;SDS011;42916;54.346;18.562;2023-12-04T10:19:25;22.00;;;9.40;;
57023;SDS011;42916;54.346;18.562;2023-12-04T10:21:54;20.70;;;10.10;;
57023;SDS011;42916;54.346;18.562;2023-12-04T10:26:57;17.70;;;8.80;;
57023;SDS011;42916;54.346;18.562;2023-12-04T10:29:26;23.20;;;10.30;;
57023;SDS011;42916;54.346;18.562;2023-12-04T10:31:55;21.30;;;10.40;;
57023;SDS011;42916;54.346;18.562;2023-12-04T10:34:22;22.00;;;9.60;;
57023;SDS011;42916;54.346;18.562;2023-12-04T10:36:52;23.90;;;11.10;;
57023;SDS011;42916;54.346;18.562;2023-12-04T10:39:19;19.20;;;9.00;;
57023;SDS011;42916;54.346;18.562;2023-12-04T10:41:49;20.90;;;9.90;;
57023;SDS011;42916;54.346;18.562;2023-12-04T10:44:26;21.80;;;10.70;;
57023;SDS011;42916;54.346;18.562;2023-12-04T10:46:53;22.10;;;10.10;;
57023;SDS011;42916;54.346;18.562;2023-12-04T10:49:26;18.30;;;9.50;;
57023;SDS011;42916;54.346;18.562;2023-12-04T10:51:57;19.70;;;10.60;;
57023;SDS011;42916;54.346;18.562;2023-12-04T10:54:27;20.80;;;9.40;;
57023;SDS011;42916;54.346;18.562;2023-12-04T10:56:56;21.80;;;10.80;;
57023;SDS011;42916;54.346;18.562;2023-12-04T10:59:30;18.80;;;9.50;;
57023;SDS011;42916;54.346;18.562;2023-12-04T11:02:03;23.50;;;10.30;;
57023;SDS011;42916;54.346;18.562;2023-12-04T11:04:32;20.40;;;10.70;;
57023;SDS011;42916;54.346;18.562;2023-12-04T11:07:02;22.30;;;10.50;;
57023;SDS011;42916;54.346;18.562;2023-12-04T11:09:31;24.50;;;10.70;;
57023;SDS011;42916;54.346;18.562;2023-12-04T11:12:02;22.70;;;10.50;;
57023;SDS011;42916;54.346;18.562;2023-12-04T11:14:34;23.40;;;10.60;;
57023;SDS011;42916;54.346;18.562;2023-12-04T11:17:09;21.20;;;11.10;;
57023;SDS011;42916;54.346;18.562;2023-12-04T11:20:01;16.40;;;7.90;;
57023;SDS011;42916;54.346;18.562;2023-12-04T11:22:35;23.90;;;10.90;;
57023;SDS011;42916;54.346;18.562;2023-12-04T11:25:06;21.80;;;10.00;;
57023;SDS011;42916;54.346;18.562;2023-12-04T11:27:34;20.00;;;9.30;;
57023;SDS011;42916;54.346;18.562;2023-12-04T11:30:02;23.90;;;10.60;;
57023;SDS011;42916;54.346;18.562;2023-12-04T11:32:30;25.30;;;10.60;;
57023;SDS011;42916;54.346;18.562;2023-12-04T11:34:59;22.50;;;10.00;;
57023;SDS011;42916;54.346;18.562;2023-12-04T11:39:53;19.60;;;9.40;;
57023;SDS011;42916;54.346;18.562;2023-12-04T11:42:24;23.50;;;10.10;;
57023;SDS011;42916;54.346;18.562;2023-12-04T11:44:57;21.10;;;9.60;;
57023;SDS011;42916;54.346;18.562;2023-12-04T11:47:25;21.10;;;9.70;;
57023;SDS011;42916;54.346;18.562;2023-12-04T11:49:54;19.40;;;9.10;;
57023;SDS011;42916;54.346;18.562;2023-12-04T11:52:31;23.70;;;10.80;;
57023;SDS011;42916;54.346;18.562;2023-12-04T11:57:49;21.80;;;9.90;;
57023;SDS011;42916;54.346;18.562;2023-12-04T12:05:21;12.40;;;5.50;;
57023;SDS011;42916;54.346;18.562;2023-12-04T12:07:49;20.30;;;9.10;;
57023;SDS011;42916;54.346;18.562;2023-12-04T12:10:16;20.60;;;10.20;;
57023;SDS011;42916;54.346;18.562;2023-12-04T12:12:43;12.20;;;6.60;;
57023;SDS011;42916;54.346;18.562;2023-12-04T12:15:10;22.00;;;9.50;;
57023;SDS011;42916;54.346;18.562;2023-12-04T12:17:38;18.80;;;9.80;;
57023;SDS011;42916;54.346;18.562;2023-12-04T12:20:06;22.80;;;10.30;;
57023;SDS011;42916;54.346;18.562;2023-12-04T12:22:36;20.60;;;9.80;;
57023;SDS011;42916;54.346;18.562;2023-12-04T12:25:04;19.90;;;9.90;;
57023;SDS011;42916;54.346;18.562;2023-12-04T12:27:31;16.90;;;8.20;;
57023;SDS011;42916;54.346;18.562;2023-12-04T12:29:58;17.00;;;9.00;;
57023;SDS011;42916;54.346;18.562;2023-12-04T12:32:26;22.40;;;10.90;;
57023;SDS011;42916;54.346;18.562;2023-12-04T12:34:53;20.10;;;9.70;;
57023;SDS011;42916;54.346;18.562;2023-12-04T12:37:21;26.50;;;10.10;;
57023;SDS011;42916;54.346;18.562;2023-12-04T12:39:48;21.40;;;8.90;;
57023;SDS011;42916;54.346;18.562;2023-12-04T12:42:24;19.30;;;9.60;;
57023;SDS011;42916;54.346;18.562;2023-12-04T12:44:55;23.40;;;10.10;;
57023;SDS011;42916;54.346;18.562;2023-12-04T12:47:26;27.10;;;11.60;;
57023;SDS011;42916;54.346;18.562;2023-12-04T12:49:53;32.40;;;11.50;;
57023;SDS011;42916;54.346;18.562;2023-12-04T12:52:20;27.70;;;11.10;;
57023;SDS011;42916;54.346;18.562;2023-12-04T12:54:47;25.20;;;10.60;;
57023;SDS011;42916;54.346;18.562;2023-12-04T12:57:13;22.00;;;10.80;;
57023;SDS011;42916;54.346;18.562;2023-12-04T12:59:40;21.10;;;9.60;;
57023;SDS011;42916;54.346;18.562;2023-12-04T13:02:07;23.70;;;10.40;;
57023;SDS011;42916;54.346;18.562;2023-12-04T13:04:35;22.90;;;9.50;;
57023;SDS011;42916;54.346;18.562;2023-12-04T13:07:02;22.10;;;10.50;;
57023;SDS011;42916;54.346;18.562;2023-12-04T13:09:30;22.80;;;10.10;;
57023;SDS011;42916;54.346;18.562;2023-12-04T13:11:56;20.40;;;9.90;;
57023;SDS011;42916;54.346;18.562;2023-12-04T13:14:23;19.00;;;9.30;;
57023;SDS011;42916;54.346;18.562;2023-12-04T13:16:51;24.30;;;10.60;;
57023;SDS011;42916;54.346;18.562;2023-12-04T13:19:17;24.50;;;10.90;;
57023;SDS011;42916;54.346;18.562;2023-12-04T13:21:44;26.00;;;11.20;;
57023;SDS011;42916;54.346;18.562;2023-12-04T13:24:11;27.20;;;12.00;;
57023;SDS011;42916;54.346;18.562;2023-12-04T13:26:38;26.10;;;11.40;;
57023;SDS011;42916;54.346;18.562;2023-12-04T13:29:05;25.00;;;9.90;;
57023;SDS011;42916;54.346;18.562;2023-12-04T13:31:33;18.80;;;9.60;;
57023;SDS011;42916;54.346;18.562;2023-12-04T13:34:00;20.70;;;9.90;;
57023;SDS011;42916;54.346;18.562;2023-12-04T13:36:27;24.10;;;11.70;;
57023;SDS011;42916;54.346;18.562;2023-12-04T13:38:54;21.20;;;9.40;;
57023;SDS011;42916;54.346;18.562;2023-12-04T13:41:20;24.90;;;11.20;;
57023;SDS011;42916;54.346;18.562;2023-12-04T13:44:07;26.10;;;11.30;;
57023;SDS011;42916;54.346;18.562;2023-12-04T13:46:34;22.10;;;9.40;;
57023;SDS011;42916;54.346;18.562;2023-12-04T13:49:01;23.60;;;10.60;;
57023;SDS011;42916;54.346;18.562;2023-12-04T13:51:27;21.50;;;10.10;;
57023;SDS011;42916;54.346;18.562;2023-12-04T13:53:54;22.80;;;10.60;;
57023;SDS011;42916;54.346;18.562;2023-12-04T13:56:35;23.00;;;9.90;;
57023;SDS011;42916;54.346;18.562;2023-12-04T13:59:11;22.00;;;10.50;;
57023;SDS011;42916;54.346;18.562;2023-12-04T14:01:45;21.20;;;10.10;;
57023;SDS011;42916;54.346;18.562;2023-12-04T14:04:12;18.80;;;9.10;;
57023;SDS011;42916;54.346;18.562;2023-12-04T14:06:39;22.60;;;10.20;;
57023;SDS011;42916;54.346;18.562;2023-12-04T14:09:06;20.50;;;9.20;;
57023;SDS011;42916;54.346;18.562;2023-12-04T14:11:44;21.90;;;10.30;;
57023;SDS011;42916;54.346;18.562;2023-12-04T14:14:11;18.30;;;8.50;;
57023;SDS011;42916;54.346;18.562;2023-12-04T14:16:41;21.80;;;9.30;;
57023;SDS011;42916;54.346;18.562;2023-12-04T14:19:08;26.00;;;10.50;;
57023;SDS011;42916;54.346;18.562;2023-12-04T14:21:35;21.00;;;9.80;;
57023;SDS011;42916;54.346;18.562;2023-12-04T14:24:02;24.00;;;11.20;;
57023;SDS011;42916;54.346;18.562;2023-12-04T14:26:28;23.10;;;10.50;;
57023;SDS011;42916;54.346;18.562;2023-12-04T14:28:55;24.70;;;9.40;;
57023;SDS011;42916;54.346;18.562;2023-12-04T14:31:23;28.60;;;11.60;;
57023;SDS011;42916;54.346;18.562;2023-12-04T14:33:50;25.00;;;11.50;;
57023;SDS011;42916;54.346;18.562;2023-12-04T14:36:17;32.20;;;13.00;;
57023;SDS011;42916;54.346;18.562;2023-12-04T14:38:43;30.10;;;12.00;;